createdAt,value
2022-12-25T00:01:20.634Z,19.40
2022-12-25T00:03:55.889Z,20.60
2022-12-25T00:06:28.374Z,18.40
2022-12-25T00:09:01.217Z,19.70
2022-12-25T00:11:33.710Z,24.50
2022-12-25T00:14:06.562Z,20.70
2022-12-25T00:16:39.550Z,24.10
2022-12-25T00:19:12.038Z,19.00
2022-12-25T00:21:44.555Z,24.40
2022-12-25T00:24:16.895Z,26.70
2022-12-25T00:26:49.312Z,32.80
2022-12-25T00:29:22.353Z,38.30
2022-12-25T00:31:58.119Z,23.50
2022-12-25T00:34:30.543Z,25.70
2022-12-25T00:37:03.494Z,20.30
2022-12-25T00:39:35.891Z,54.00
2022-12-25T00:42:20.894Z,71.20
2022-12-25T00:44:53.960Z,40.80
2022-12-25T00:47:29.610Z,41.80
2022-12-25T00:50:02.371Z,41.10
2022-12-25T00:52:35.188Z,31.10
2022-12-25T00:55:08.307Z,36.90
2022-12-25T00:57:40.775Z,50.40
2022-12-25T01:00:17.214Z,41.50
2022-12-25T01:02:49.634Z,34.70
2022-12-25T01:05:22.204Z,31.30
2022-12-25T01:07:54.508Z,31.20
2022-12-25T01:10:26.945Z,28.40
2022-12-25T01:13:02.523Z,37.40
2022-12-25T01:15:37.801Z,23.60
2022-12-25T01:18:12.875Z,27.70
2022-12-25T01:20:45.815Z,27.00
2022-12-25T01:23:18.281Z,40.70
2022-12-25T01:25:51.433Z,45.80
2022-12-25T01:28:24.068Z,25.90
2022-12-25T01:30:56.425Z,32.80
2022-12-25T01:33:28.810Z,31.00
2022-12-25T01:36:01.153Z,40.50
2022-12-25T01:38:33.533Z,27.00
2022-12-25T01:41:09.287Z,30.40
2022-12-25T01:43:59.851Z,25.30
2022-12-25T01:49:06.766Z,22.70
2022-12-25T01:51:43.494Z,26.20
2022-12-25T01:54:21.534Z,26.40
2022-12-25T01:56:57.047Z,37.10
2022-12-25T01:59:30.893Z,23.70
2022-12-25T02:02:04.540Z,21.10
2022-12-25T02:04:44.227Z,29.20
2022-12-25T02:07:20.118Z,31.90
2022-12-25T02:09:52.994Z,22.50
2022-12-25T02:12:27.825Z,40.00
2022-12-25T02:15:05.668Z,30.80
2022-12-25T02:17:46.692Z,26.70
2022-12-25T02:20:49.730Z,25.70
2022-12-25T02:23:54.413Z,25.10
2022-12-25T02:26:49.923Z,23.60
2022-12-25T02:29:28.316Z,25.10
2022-12-25T02:32:15.724Z,27.40
2022-12-25T02:34:54.759Z,25.80
2022-12-25T02:37:33.183Z,21.30
2022-12-25T02:40:17.531Z,27.60
2022-12-25T02:43:14.720Z,19.60
2022-12-25T02:46:11.144Z,21.40
2022-12-25T02:49:08.291Z,41.40
2022-12-25T02:52:05.904Z,18.10
2022-12-25T02:55:02.521Z,22.00
2022-12-25T02:57:57.995Z,23.70
2022-12-25T03:00:50.678Z,22.10
2022-12-25T03:03:49.208Z,23.70
2022-12-25T03:06:47.053Z,35.40
2022-12-25T03:09:41.385Z,33.40
2022-12-25T03:12:22.996Z,25.10
2022-12-25T03:15:12.899Z,22.60
2022-12-25T03:17:45.454Z,25.00
2022-12-25T03:20:35.705Z,19.00
2022-12-25T03:23:27.957Z,185.90
2022-12-25T03:26:19.599Z,27.80
2022-12-25T03:28:54.927Z,23.50
2022-12-25T03:31:38.071Z,20.50
2022-12-25T03:34:51.016Z,18.10
2022-12-25T03:37:51.415Z,21.50
2022-12-25T03:40:52.714Z,37.00
2022-12-25T03:43:57.080Z,22.40
2022-12-25T03:46:55.020Z,22.10
2022-12-25T03:49:50.144Z,27.70
2022-12-25T03:52:41.337Z,30.50
2022-12-25T03:55:33.359Z,27.10
2022-12-25T03:58:23.395Z,27.70
2022-12-25T04:01:16.469Z,27.60
2022-12-25T04:04:09.049Z,30.30
2022-12-25T04:06:59.176Z,34.70
2022-12-25T04:09:51.325Z,32.60
2022-12-25T04:12:44.053Z,28.30
2022-12-25T04:15:34.197Z,37.20
2022-12-25T04:18:25.189Z,32.30
2022-12-25T04:21:17.024Z,43.80
2022-12-25T04:24:08.160Z,39.30
2022-12-25T04:26:58.960Z,33.90
2022-12-25T04:29:48.515Z,28.90
2022-12-25T04:32:38.537Z,29.50
2022-12-25T04:35:29.421Z,26.90
2022-12-25T04:38:01.924Z,32.00
2022-12-25T04:40:34.381Z,40.40
2022-12-25T04:43:06.902Z,71.50
2022-12-25T04:45:39.306Z,80.20
2022-12-25T04:48:14.346Z,49.20
2022-12-25T04:50:49.713Z,29.70
2022-12-25T04:53:22.199Z,29.50
2022-12-25T04:56:03.872Z,27.70
2022-12-25T04:58:36.250Z,24.60
2022-12-25T05:01:09.035Z,24.10
2022-12-25T05:03:42.945Z,17.60
2022-12-25T05:06:16.116Z,26.00
2022-12-25T05:08:48.501Z,20.40
2022-12-25T05:11:21.013Z,19.80
2022-12-25T05:13:53.386Z,19.80
2022-12-25T05:16:29.261Z,27.30
2022-12-25T05:19:05.813Z,23.60
2022-12-25T05:21:38.307Z,24.90
2022-12-25T05:24:11.064Z,31.40
2022-12-25T05:26:43.848Z,37.30
2022-12-25T05:29:18.295Z,43.00
2022-12-25T05:31:50.712Z,45.90
2022-12-25T05:34:26.370Z,50.90
2022-12-25T05:36:58.801Z,44.20
2022-12-25T05:39:34.587Z,58.20
2022-12-25T05:42:10.517Z,64.80
2022-12-25T05:44:45.900Z,75.80
2022-12-25T05:47:18.408Z,43.50
2022-12-25T05:49:50.900Z,45.70
2022-12-25T05:52:23.482Z,34.80
2022-12-25T05:54:55.836Z,51.60
2022-12-25T05:57:29.230Z,36.90
2022-12-25T06:00:01.643Z,44.60
2022-12-25T06:02:37.950Z,60.60
2022-12-25T06:05:13.662Z,53.30
2022-12-25T06:07:46.045Z,37.40
2022-12-25T06:10:18.602Z,34.90
2022-12-25T06:12:50.929Z,26.60
2022-12-25T06:15:23.439Z,27.40
2022-12-25T06:17:56.231Z,25.30
2022-12-25T06:20:28.866Z,21.70
2022-12-25T06:23:01.287Z,35.70
2022-12-25T06:25:36.878Z,36.80
2022-12-25T06:28:12.337Z,36.10
2022-12-25T06:30:44.857Z,36.70
2022-12-25T06:33:17.242Z,54.10
2022-12-25T06:35:52.038Z,38.80
2022-12-25T06:38:26.916Z,48.50
2022-12-25T06:41:03.805Z,49.10
2022-12-25T06:43:36.260Z,59.70
2022-12-25T06:46:11.000Z,60.60
2022-12-25T06:48:49.339Z,76.60
2022-12-25T06:51:24.469Z,82.30
2022-12-25T06:54:00.671Z,60.30
2022-12-25T06:56:34.146Z,53.50
2022-12-25T06:59:11.632Z,34.20
2022-12-25T07:01:51.211Z,37.60
2022-12-25T07:04:28.361Z,30.80
2022-12-25T07:07:07.988Z,29.40
2022-12-25T07:09:42.723Z,39.20
2022-12-25T07:12:20.866Z,48.90
2022-12-25T07:14:55.061Z,58.50
2022-12-25T07:17:27.454Z,30.20
2022-12-25T07:19:59.794Z,28.40
2022-12-25T07:22:32.461Z,21.60
2022-12-25T07:25:04.832Z,22.40
2022-12-25T07:27:37.133Z,21.30
2022-12-25T07:30:11.351Z,20.40
2022-12-25T07:32:49.851Z,28.30
2022-12-25T07:35:22.640Z,22.80
2022-12-25T07:37:55.011Z,21.60
2022-12-25T07:40:27.287Z,18.70
2022-12-25T07:42:59.599Z,18.80
2022-12-25T07:45:32.005Z,25.60
2022-12-25T07:48:06.292Z,24.90
2022-12-25T07:50:40.969Z,26.20
2022-12-25T07:53:13.411Z,26.10
2022-12-25T07:55:45.722Z,23.70
2022-12-25T07:58:23.173Z,22.90
2022-12-25T08:00:58.839Z,24.70
2022-12-25T08:03:32.569Z,21.20
2022-12-25T08:06:06.930Z,30.30
2022-12-25T08:08:40.300Z,28.80
2022-12-25T08:11:13.336Z,39.20
2022-12-25T08:13:45.694Z,28.30
2022-12-25T08:16:18.128Z,31.30
2022-12-25T08:18:50.871Z,26.50
2022-12-25T08:21:23.339Z,33.40
2022-12-25T08:23:57.289Z,32.20
2022-12-25T08:26:29.978Z,26.00
2022-12-25T08:29:03.121Z,23.80
2022-12-25T08:31:39.437Z,29.50
2022-12-25T08:34:15.280Z,29.80
2022-12-25T08:36:47.715Z,27.40
2022-12-25T08:39:20.244Z,30.10
2022-12-25T08:41:52.482Z,30.70
2022-12-25T08:44:26.100Z,29.90
2022-12-25T08:46:58.297Z,27.30
2022-12-25T08:49:30.625Z,31.30
2022-12-25T08:52:05.487Z,31.20
2022-12-25T08:54:38.004Z,28.40
2022-12-25T08:57:10.302Z,29.80
2022-12-25T08:59:45.407Z,47.40
2022-12-25T09:02:19.735Z,34.20
2022-12-25T09:04:52.562Z,38.40
2022-12-25T09:07:24.944Z,37.90
2022-12-25T09:09:58.309Z,24.80
2022-12-25T09:12:30.615Z,20.50
2022-12-25T09:15:02.908Z,21.40
2022-12-25T09:17:35.797Z,25.40
2022-12-25T09:20:10.065Z,18.50
2022-12-25T09:22:42.286Z,24.50
2022-12-25T09:25:15.036Z,22.30
2022-12-25T09:27:47.392Z,26.10
2022-12-25T09:30:20.018Z,20.00
2022-12-25T09:32:52.343Z,22.40
2022-12-25T09:35:24.716Z,20.80
2022-12-25T09:37:57.158Z,17.20
2022-12-25T09:40:33.457Z,17.70
2022-12-25T09:43:06.884Z,16.30
2022-12-25T09:45:42.824Z,17.20
2022-12-25T09:48:17.669Z,18.10
2022-12-25T09:50:55.117Z,13.40
2022-12-25T09:53:30.254Z,21.20
2022-12-25T09:56:10.593Z,20.70
2022-12-25T09:58:45.782Z,16.60
2022-12-25T10:01:30.301Z,15.30
2022-12-25T10:04:34.749Z,15.90
2022-12-25T10:07:18.235Z,16.30
2022-12-25T10:10:04.206Z,16.50
2022-12-25T10:12:47.117Z,16.10
2022-12-25T10:15:36.710Z,11.70
2022-12-25T10:18:31.975Z,13.60
2022-12-25T10:21:13.383Z,13.40
2022-12-25T10:23:56.478Z,13.60
2022-12-25T10:26:34.898Z,15.20
2022-12-25T10:29:14.545Z,13.60
2022-12-25T10:31:51.736Z,18.90
2022-12-25T10:34:27.945Z,15.90
2022-12-25T10:37:02.131Z,16.40
2022-12-25T10:39:40.981Z,14.50
2022-12-25T10:42:31.931Z,16.40
2022-12-25T10:45:08.028Z,18.00
2022-12-25T10:47:43.505Z,18.20
2022-12-25T10:50:23.807Z,38.00
2022-12-25T10:55:33.262Z,29.10
2022-12-25T10:58:07.134Z,22.30
2022-12-25T11:00:39.631Z,19.20
2022-12-25T11:03:25.046Z,12.40
2022-12-25T11:05:58.327Z,23.20
2022-12-25T11:08:33.555Z,14.70
2022-12-25T11:11:07.455Z,14.70
2022-12-25T11:13:49.045Z,18.50
2022-12-25T11:16:33.659Z,25.40
2022-12-25T11:19:30.536Z,22.50
2022-12-25T11:22:05.256Z,26.30
2022-12-25T11:24:37.593Z,20.00
2022-12-25T11:27:21.583Z,26.30
2022-12-25T11:29:57.354Z,23.80
2022-12-25T11:32:35.210Z,14.60
2022-12-25T11:35:14.189Z,18.60
2022-12-25T11:37:50.257Z,15.60
2022-12-25T11:40:26.359Z,14.70
2022-12-25T11:43:08.353Z,12.10
2022-12-25T11:45:46.545Z,14.70
2022-12-25T11:48:26.391Z,16.30
2022-12-25T11:51:01.465Z,14.30
2022-12-25T11:53:42.629Z,10.80
2022-12-25T11:56:19.923Z,15.30
2022-12-25T11:58:54.417Z,14.50
2022-12-25T12:01:34.599Z,13.60
2022-12-25T12:04:16.016Z,15.20
2022-12-25T12:06:53.925Z,19.00
2022-12-25T12:09:45.544Z,17.50
2022-12-25T12:12:28.308Z,22.70
2022-12-25T12:15:08.750Z,20.70
2022-12-25T12:20:35.433Z,20.10
2022-12-25T12:23:18.257Z,20.90
2022-12-25T12:26:01.477Z,17.70
2022-12-25T12:28:46.079Z,20.30
2022-12-25T12:31:18.792Z,20.70
2022-12-25T12:33:58.589Z,18.10
2022-12-25T12:36:37.015Z,18.80
2022-12-25T12:39:22.816Z,15.80
2022-12-25T12:41:55.570Z,13.80
2022-12-25T12:44:33.102Z,15.10
2022-12-25T12:47:05.716Z,16.90
2022-12-25T12:49:38.213Z,17.70
2022-12-25T12:52:24.671Z,16.10
2022-12-25T12:55:01.680Z,17.60
2022-12-25T12:57:39.634Z,17.10
2022-12-25T13:00:21.514Z,11.20
2022-12-25T13:03:11.098Z,15.70
2022-12-25T13:05:48.152Z,18.70
2022-12-25T13:08:35.559Z,18.80
2022-12-25T13:11:15.743Z,23.10
2022-12-25T13:13:49.945Z,26.70
2022-12-25T13:16:28.264Z,30.20
2022-12-25T13:19:08.298Z,30.30
2022-12-25T13:21:43.078Z,30.40
2022-12-25T13:24:23.649Z,32.80
2022-12-25T13:26:56.788Z,39.10
2022-12-25T13:29:36.626Z,34.90
2022-12-25T13:32:20.263Z,44.00
2022-12-25T13:34:53.119Z,41.00
2022-12-25T13:37:29.876Z,40.40
2022-12-25T13:40:21.596Z,45.50
2022-12-25T13:42:56.781Z,38.60
2022-12-25T13:45:34.131Z,39.50
2022-12-25T13:48:22.276Z,37.80
2022-12-25T13:51:04.214Z,44.40
2022-12-25T13:53:39.394Z,42.90
2022-12-25T13:56:18.430Z,39.00
2022-12-25T13:58:51.557Z,41.10
2022-12-25T14:01:23.909Z,40.00
2022-12-25T14:03:57.305Z,40.20
2022-12-25T14:06:33.091Z,35.70
2022-12-25T14:09:05.652Z,40.10
2022-12-25T14:11:38.669Z,39.40
2022-12-25T14:14:19.388Z,34.30
2022-12-25T14:16:58.515Z,36.00
2022-12-25T14:19:35.608Z,35.70
2022-12-25T14:22:18.684Z,33.70
2022-12-25T14:24:51.369Z,40.00
2022-12-25T14:27:26.426Z,34.00
2022-12-25T14:30:00.730Z,40.30
2022-12-25T14:32:40.827Z,34.30
2022-12-25T14:35:23.106Z,35.60
2022-12-25T14:38:01.119Z,35.40
2022-12-25T14:40:36.101Z,32.40
2022-12-25T14:43:23.024Z,33.70
2022-12-25T14:46:03.207Z,35.30
2022-12-25T14:48:35.962Z,35.20
2022-12-25T14:51:17.111Z,32.60
2022-12-25T14:53:57.618Z,35.90
2022-12-25T14:56:38.014Z,37.10
2022-12-25T14:59:20.392Z,32.80
2022-12-25T15:01:58.396Z,35.40
2022-12-25T15:04:31.695Z,40.90
2022-12-25T15:07:09.561Z,35.30
2022-12-25T15:09:42.628Z,32.20
2022-12-25T15:12:15.561Z,29.60
2022-12-25T15:14:48.506Z,36.30
2022-12-25T15:17:27.598Z,36.10
2022-12-25T15:20:04.214Z,33.30
2022-12-25T15:23:02.274Z,37.10
2022-12-25T15:25:29.589Z,32.90
2022-12-25T15:28:02.097Z,32.90
2022-12-25T15:30:35.727Z,37.90
2022-12-25T15:33:08.748Z,37.30
2022-12-25T15:35:46.955Z,34.40
2022-12-25T15:38:21.817Z,37.70
2022-12-25T15:41:06.246Z,38.80
2022-12-25T15:43:41.344Z,39.90
2022-12-25T15:46:20.581Z,38.40
2022-12-25T15:48:53.365Z,44.60
2022-12-25T15:51:25.894Z,47.60
2022-12-25T15:54:02.067Z,45.10
2022-12-25T15:56:41.850Z,59.60
2022-12-25T15:59:17.068Z,59.10
2022-12-25T16:01:54.495Z,57.20
2022-12-25T16:04:31.434Z,63.10
2022-12-25T16:07:03.930Z,58.20
2022-12-25T16:09:38.308Z,67.20
2022-12-25T16:12:11.705Z,77.90
2022-12-25T16:14:46.336Z,71.10
2022-12-25T16:17:20.359Z,71.40
2022-12-25T16:19:53.163Z,67.00
2022-12-25T16:22:26.843Z,76.20
2022-12-25T16:25:02.273Z,92.80
2022-12-25T16:27:40.444Z,91.80
2022-12-25T16:30:18.486Z,96.70
2022-12-25T16:32:54.283Z,92.90
2022-12-25T16:35:30.644Z,102.90
2022-12-25T16:38:03.413Z,104.20
2022-12-25T16:40:36.722Z,100.10
2022-12-25T16:43:12.319Z,94.60
2022-12-25T16:45:44.721Z,89.50
2022-12-25T16:48:17.299Z,90.60
2022-12-25T16:50:54.365Z,82.60
2022-12-25T16:53:26.897Z,84.70
2022-12-25T16:56:08.298Z,88.90
2022-12-25T16:58:40.695Z,97.80
2022-12-25T17:01:14.452Z,89.00
2022-12-25T17:03:47.337Z,91.70
2022-12-25T17:06:24.681Z,104.40
2022-12-25T17:08:59.990Z,114.40
2022-12-25T17:11:33.231Z,118.40
2022-12-25T17:14:07.700Z,127.30
2022-12-25T17:16:41.061Z,119.50
2022-12-25T17:19:19.970Z,132.30
2022-12-25T17:21:54.807Z,121.90
2022-12-25T17:24:27.164Z,127.90
2022-12-25T17:26:59.427Z,137.20
2022-12-25T17:29:33.064Z,142.90
2022-12-25T17:32:05.422Z,156.80
2022-12-25T17:34:38.027Z,162.80
2022-12-25T17:37:10.757Z,175.20
2022-12-25T17:39:43.300Z,160.20
2022-12-25T17:42:15.590Z,141.10
2022-12-25T17:44:48.912Z,158.30
2022-12-25T17:47:21.279Z,169.50
2022-12-25T17:49:53.687Z,182.90
2022-12-25T17:52:26.091Z,172.20
2022-12-25T17:54:58.387Z,166.30
2022-12-25T17:57:30.662Z,161.10
2022-12-25T18:00:03.046Z,161.30
2022-12-25T18:02:38.077Z,169.80
2022-12-25T18:05:12.039Z,184.70
2022-12-25T18:07:44.370Z,164.60
2022-12-25T18:10:17.173Z,152.10
2022-12-25T18:12:49.771Z,143.70
2022-12-25T18:15:22.755Z,174.40
2022-12-25T18:17:55.779Z,143.00
2022-12-25T18:20:31.840Z,168.80
2022-12-25T18:23:08.512Z,133.90
2022-12-25T18:25:43.940Z,142.50
2022-12-25T18:28:16.303Z,156.80
2022-12-25T18:30:49.821Z,133.90
2022-12-25T18:33:22.327Z,128.90
2022-12-25T18:36:00.022Z,132.00
2022-12-25T18:38:32.806Z,130.60
2022-12-25T18:41:07.632Z,140.30
2022-12-25T18:43:53.090Z,132.90
2022-12-25T18:46:28.288Z,138.00
2022-12-25T18:49:01.292Z,136.80
2022-12-25T18:51:37.150Z,142.40
2022-12-25T18:54:09.743Z,138.40
2022-12-25T18:56:48.402Z,136.60
2022-12-25T18:59:24.487Z,163.50
2022-12-25T19:01:56.948Z,173.70
2022-12-25T19:04:33.717Z,163.30
2022-12-25T19:07:06.042Z,139.70
2022-12-25T19:09:43.368Z,142.70
2022-12-25T19:12:15.773Z,132.80
2022-12-25T19:14:48.656Z,141.40
2022-12-25T19:17:23.433Z,142.90
2022-12-25T19:19:59.078Z,130.40
2022-12-25T19:22:33.202Z,147.50
2022-12-25T19:25:05.975Z,123.50
2022-12-25T19:27:38.192Z,115.80
2022-12-25T19:30:12.941Z,110.50
2022-12-25T19:32:45.220Z,111.00
2022-12-25T19:35:17.975Z,104.30
2022-12-25T19:37:50.395Z,98.00
2022-12-25T19:40:22.769Z,89.00
2022-12-25T19:42:55.292Z,89.40
2022-12-25T19:45:27.605Z,85.60
2022-12-25T19:48:00.036Z,79.60
2022-12-25T19:50:34.760Z,89.10
2022-12-25T19:53:07.127Z,95.90
2022-12-25T19:55:39.427Z,91.40
2022-12-25T19:58:12.112Z,98.20
2022-12-25T20:00:44.542Z,92.60
2022-12-25T20:03:17.018Z,83.50
2022-12-25T20:05:49.398Z,91.60
2022-12-25T20:08:22.123Z,73.80
2022-12-25T20:10:54.516Z,77.10
2022-12-25T20:13:27.317Z,85.00
2022-12-25T20:16:04.629Z,83.90
2022-12-25T20:18:37.285Z,83.40
2022-12-25T20:21:16.359Z,95.40
2022-12-25T20:23:53.847Z,93.50
2022-12-25T20:26:33.690Z,102.60
2022-12-25T20:29:06.942Z,100.30
2022-12-25T20:31:40.461Z,103.20
2022-12-25T20:34:18.468Z,95.80
2022-12-25T20:36:51.582Z,88.40
2022-12-25T20:39:24.950Z,97.50
2022-12-25T20:41:57.643Z,97.10
2022-12-25T20:44:31.596Z,83.60
2022-12-25T20:47:03.896Z,95.80
2022-12-25T20:49:36.655Z,101.60
2022-12-25T20:52:09.394Z,115.60
2022-12-25T20:54:42.387Z,116.60
2022-12-25T20:57:14.758Z,116.50
2022-12-25T20:59:47.502Z,112.10
2022-12-25T21:02:35.402Z,104.50
2022-12-25T21:05:12.608Z,100.60
2022-12-25T21:07:45.071Z,101.30
2022-12-25T21:10:17.676Z,96.60
2022-12-25T21:12:50.071Z,86.00
2022-12-25T21:15:22.505Z,84.10
2022-12-25T21:17:54.739Z,84.90
2022-12-25T21:20:27.036Z,80.60
2022-12-25T21:22:59.728Z,74.50
2022-12-25T21:25:32.111Z,85.10
2022-12-25T21:28:04.482Z,83.30
2022-12-25T21:30:37.137Z,86.60
2022-12-25T21:33:26.817Z,70.40
2022-12-25T21:36:05.340Z,65.60
2022-12-25T21:38:38.043Z,71.80
2022-12-25T21:41:12.148Z,66.60
2022-12-25T21:43:44.564Z,69.40
2022-12-25T21:46:18.591Z,72.70
2022-12-25T21:48:51.669Z,68.90
2022-12-25T21:51:45.695Z,69.80
2022-12-25T21:54:18.515Z,80.40
2022-12-25T21:56:51.249Z,71.90
2022-12-25T21:59:24.489Z,68.90
2022-12-25T22:01:56.899Z,71.20
2022-12-25T22:04:29.298Z,65.90
2022-12-25T22:07:19.776Z,69.30
2022-12-25T22:09:53.960Z,65.30
2022-12-25T22:12:43.888Z,64.40
2022-12-25T22:15:16.371Z,58.20
2022-12-25T22:18:06.443Z,56.00
2022-12-25T22:23:11.615Z,52.40
2022-12-25T22:25:43.948Z,43.40
2022-12-25T22:28:16.422Z,51.50
2022-12-25T22:30:48.823Z,46.90
2022-12-25T22:33:22.627Z,39.20
2022-12-25T22:36:04.261Z,46.20
2022-12-25T22:38:36.690Z,40.50
2022-12-25T22:41:09.522Z,42.10
2022-12-25T22:44:15.823Z,41.70
2022-12-25T22:46:34.161Z,49.30
2022-12-25T22:49:06.667Z,39.00
2022-12-25T22:51:38.983Z,45.80
2022-12-25T22:54:13.158Z,45.60
2022-12-25T22:56:49.461Z,40.60
2022-12-25T22:59:23.713Z,42.00
2022-12-25T23:01:56.708Z,44.70
2022-12-25T23:04:29.146Z,48.20
2022-12-25T23:07:02.089Z,41.20
2022-12-25T23:09:35.300Z,43.30
2022-12-25T23:12:28.540Z,39.30
2022-12-25T23:15:01.057Z,41.40
2022-12-25T23:17:50.978Z,45.40
2022-12-25T23:20:41.222Z,48.90
2022-12-25T23:23:34.971Z,42.60
2022-12-25T23:26:10.566Z,46.60
2022-12-25T23:29:01.871Z,44.20
2022-12-25T23:31:37.923Z,41.50
2022-12-25T23:34:11.191Z,39.20
2022-12-25T23:36:43.474Z,41.70
2022-12-25T23:39:18.646Z,41.30
2022-12-25T23:41:51.155Z,39.50
2022-12-25T23:44:23.593Z,38.40
2022-12-25T23:46:56.166Z,34.90
2022-12-25T23:49:28.793Z,36.20
2022-12-25T23:52:04.745Z,39.70
2022-12-25T23:54:37.316Z,41.20
2022-12-25T23:57:09.898Z,40.40
2022-12-25T23:59:42.773Z,40.60
